createdAt,value
2019-01-20T00:00:54.850Z,-5.20
2019-01-20T00:03:24.106Z,-5.20
2019-01-20T00:05:53.303Z,-5.30
2019-01-20T00:08:22.586Z,-5.30
2019-01-20T00:10:51.871Z,-5.30
2019-01-20T00:13:21.135Z,-5.30
2019-01-20T00:15:50.367Z,-5.30
2019-01-20T00:18:19.671Z,-5.30
2019-01-20T00:21:08.019Z,-5.40
2019-01-20T00:23:37.228Z,-5.40
2019-01-20T00:26:06.483Z,-5.40
2019-01-20T00:28:37.195Z,-5.40
2019-01-20T00:31:06.419Z,-5.40
2019-01-20T00:33:35.657Z,-5.40
2019-01-20T00:36:04.831Z,-5.40
2019-01-20T00:38:34.111Z,-5.50
2019-01-20T00:41:03.265Z,-5.50
2019-01-20T00:43:32.454Z,-5.50
2019-01-20T00:46:01.737Z,-5.50
2019-01-20T00:48:31.042Z,-5.60
2019-01-20T00:51:00.223Z,-5.60
2019-01-20T00:53:29.399Z,-5.60
2019-01-20T00:55:58.649Z,-5.60
2019-01-20T00:58:27.855Z,-5.70
2019-01-20T01:00:57.105Z,-5.70
2019-01-20T01:03:26.402Z,-5.70
2019-01-20T01:05:55.699Z,-5.80
2019-01-20T01:08:24.929Z,-5.70
2019-01-20T01:10:54.122Z,-5.70
2019-01-20T01:13:23.783Z,-5.70
2019-01-20T01:15:52.981Z,-5.70
2019-01-20T01:18:22.171Z,-5.80
2019-01-20T01:20:51.441Z,-5.80
2019-01-20T01:23:20.791Z,-5.80
2019-01-20T01:25:50.143Z,-5.80
2019-01-20T01:28:19.344Z,-5.80
2019-01-20T01:30:48.639Z,-5.90
2019-01-20T01:33:17.983Z,-5.80
2019-01-20T01:35:47.510Z,-5.90
2019-01-20T01:38:16.784Z,-5.90
2019-01-20T01:40:45.951Z,-5.90
2019-01-20T01:43:15.228Z,-5.90
2019-01-20T01:45:44.483Z,-6.00
2019-01-20T01:48:13.671Z,-6.00
2019-01-20T01:50:42.902Z,-6.10
2019-01-20T01:53:12.102Z,-6.10
2019-01-20T01:55:41.292Z,-6.10
2019-01-20T01:58:10.513Z,-6.10
2019-01-20T02:00:39.733Z,-6.10
2019-01-20T02:03:08.991Z,-6.10
2019-01-20T02:05:38.148Z,-6.10
2019-01-20T02:08:07.402Z,-6.10
2019-01-20T02:10:36.567Z,-6.10
2019-01-20T02:13:05.923Z,-6.10
2019-01-20T02:15:35.246Z,-6.10
2019-01-20T02:18:04.699Z,-6.10
2019-01-20T02:20:33.949Z,-6.10
2019-01-20T02:23:03.215Z,-6.20
2019-01-20T02:25:32.378Z,-6.20
2019-01-20T02:28:01.607Z,-6.20
2019-01-20T02:30:31.608Z,-6.20
2019-01-20T02:33:00.825Z,-6.20
2019-01-20T02:35:30.332Z,-6.30
2019-01-20T02:37:59.547Z,-6.30
2019-01-20T02:40:28.796Z,-6.30
2019-01-20T02:42:57.949Z,-6.30
2019-01-20T02:45:27.222Z,-6.40
2019-01-20T02:47:56.466Z,-6.30
2019-01-20T02:50:25.698Z,-6.40
2019-01-20T02:52:54.859Z,-6.40
2019-01-20T02:55:24.151Z,-6.40
2019-01-20T02:57:53.403Z,-6.30
2019-01-20T03:00:24.337Z,-6.40
2019-01-20T03:02:53.496Z,-6.40
2019-01-20T03:05:23.923Z,-6.40
2019-01-20T03:07:53.115Z,-6.40
2019-01-20T03:10:22.331Z,-6.40
2019-01-20T03:12:51.705Z,-6.40
2019-01-20T03:15:21.059Z,-6.40
2019-01-20T03:17:50.421Z,-6.40
2019-01-20T03:20:21.622Z,-6.40
2019-01-20T03:22:50.822Z,-6.40
2019-01-20T03:25:20.357Z,-6.50
2019-01-20T03:27:49.644Z,-6.60
2019-01-20T03:30:21.039Z,-6.60
2019-01-20T03:32:50.326Z,-6.60
2019-01-20T03:35:23.393Z,-6.60
2019-01-20T03:37:52.578Z,-6.60
2019-01-20T03:40:22.343Z,-6.70
2019-01-20T03:42:51.578Z,-6.70
2019-01-20T03:45:21.238Z,-6.70
2019-01-20T03:47:50.635Z,-6.70
2019-01-20T03:50:19.859Z,-6.70
2019-01-20T03:52:49.103Z,-6.70
2019-01-20T03:55:18.838Z,-6.70
2019-01-20T03:57:47.996Z,-6.60
2019-01-20T04:00:24.690Z,-6.60
2019-01-20T04:03:04.051Z,-6.70
2019-01-20T04:05:33.186Z,-6.80
2019-01-20T04:08:02.365Z,-6.70
2019-01-20T04:10:31.642Z,-6.80
2019-01-20T04:13:00.955Z,-6.80
2019-01-20T04:15:30.204Z,-6.80
2019-01-20T04:17:59.670Z,-6.80
2019-01-20T04:20:28.931Z,-6.80
2019-01-20T04:22:58.222Z,-6.80
2019-01-20T04:25:27.449Z,-6.80
2019-01-20T04:27:56.671Z,-6.80
2019-01-20T04:30:25.819Z,-6.80
2019-01-20T04:32:54.950Z,-6.80
2019-01-20T04:35:24.162Z,-6.80
2019-01-20T04:37:53.408Z,-6.80
2019-01-20T04:40:23.862Z,-6.80
2019-01-20T04:42:53.099Z,-6.90
2019-01-20T04:45:22.441Z,-6.90
2019-01-20T04:47:51.607Z,-6.90
2019-01-20T04:50:22.794Z,-6.90
2019-01-20T04:52:52.101Z,-6.90
2019-01-20T04:55:21.516Z,-6.90
2019-01-20T04:57:52.822Z,-6.90
2019-01-20T05:00:23.938Z,-6.90
2019-01-20T05:02:53.072Z,-6.90
2019-01-20T05:05:22.350Z,-6.80
2019-01-20T05:07:51.682Z,-6.90
2019-01-20T05:10:20.958Z,-6.90
2019-01-20T05:12:50.196Z,-6.90
2019-01-20T05:15:21.110Z,-7.00
2019-01-20T05:17:50.276Z,-6.90
2019-01-20T05:20:19.831Z,-7.00
2019-01-20T05:22:49.056Z,-7.00
2019-01-20T05:25:18.282Z,-7.00
2019-01-20T05:27:47.594Z,-7.00
2019-01-20T05:30:19.214Z,-7.10
2019-01-20T05:32:48.598Z,-7.10
2019-01-20T05:35:17.868Z,-7.10
2019-01-20T05:37:47.030Z,-7.10
2019-01-20T05:40:17.515Z,-7.10
2019-01-20T05:42:47.277Z,-7.10
2019-01-20T05:45:21.417Z,-7.10
2019-01-20T05:47:50.627Z,-7.10
2019-01-20T05:50:19.908Z,-7.10
2019-01-20T05:52:49.204Z,-7.20
2019-01-20T05:55:18.543Z,-7.20
2019-01-20T05:57:47.750Z,-7.10
2019-01-20T06:00:25.425Z,-7.10
2019-01-20T06:02:54.626Z,-7.10
2019-01-20T06:05:23.804Z,-7.10
2019-01-20T06:07:53.065Z,-7.20
2019-01-20T06:10:22.309Z,-7.20
2019-01-20T06:13:10.635Z,-7.20
2019-01-20T06:15:39.820Z,-7.20
2019-01-20T06:18:09.808Z,-7.20
2019-01-20T06:20:38.998Z,-7.20
2019-01-20T06:23:08.222Z,-7.30
2019-01-20T06:25:37.463Z,-7.30
2019-01-20T06:28:06.626Z,-7.40
2019-01-20T06:30:35.859Z,-7.40
2019-01-20T06:33:05.079Z,-7.40
2019-01-20T06:35:34.227Z,-7.40
2019-01-20T06:38:03.476Z,-7.40
2019-01-20T06:40:32.641Z,-7.30
2019-01-20T06:43:02.578Z,-7.30
2019-01-20T06:45:31.926Z,-7.30
2019-01-20T06:48:01.169Z,-7.30
2019-01-20T06:50:30.332Z,-7.30
2019-01-20T06:52:59.560Z,-7.30
2019-01-20T06:55:28.726Z,-7.30
2019-01-20T06:57:58.042Z,-7.30
2019-01-20T07:00:27.296Z,-7.30
2019-01-20T07:02:56.481Z,-7.20
2019-01-20T07:05:25.764Z,-7.20
2019-01-20T07:07:55.048Z,-7.10
2019-01-20T07:10:24.269Z,-7.10
2019-01-20T07:12:53.453Z,-7.00
2019-01-20T07:15:25.698Z,-7.00
2019-01-20T07:17:54.946Z,-7.00
2019-01-20T07:20:24.212Z,-7.00
2019-01-20T07:22:53.430Z,-6.90
2019-01-20T07:25:22.587Z,-6.80
2019-01-20T07:27:51.851Z,-6.70
2019-01-20T07:30:22.636Z,-6.70
2019-01-20T07:32:51.805Z,-6.70
2019-01-20T07:35:21.277Z,-6.70
2019-01-20T07:37:50.914Z,-6.70
2019-01-20T07:40:22.187Z,-6.70
2019-01-20T07:42:51.401Z,-6.70
2019-01-20T07:45:20.583Z,-6.70
2019-01-20T07:47:49.857Z,-6.60
2019-01-20T07:50:24.409Z,-6.40
2019-01-20T07:52:53.646Z,-6.30
2019-01-20T07:55:23.028Z,-6.20
2019-01-20T07:57:52.308Z,-6.20
2019-01-20T08:00:23.559Z,-6.20
2019-01-20T08:02:52.872Z,-6.10
2019-01-20T08:05:22.499Z,-6.00
2019-01-20T08:07:51.729Z,-6.00
2019-01-20T08:10:26.275Z,-6.00
2019-01-20T08:12:55.461Z,-6.00
2019-01-20T08:15:24.843Z,-6.00
2019-01-20T08:17:54.034Z,-5.80
2019-01-20T08:20:23.663Z,-5.70
2019-01-20T08:22:52.853Z,-5.70
2019-01-20T08:25:22.139Z,-5.70
2019-01-20T08:27:51.289Z,-5.70
2019-01-20T08:30:22.710Z,-5.70
2019-01-20T08:32:51.979Z,-5.90
2019-01-20T08:35:21.335Z,-5.80
2019-01-20T08:37:50.479Z,-5.80
2019-01-20T08:40:21.917Z,-5.80
2019-01-20T08:42:51.169Z,-5.90
2019-01-20T08:45:34.799Z,-6.00
2019-01-20T08:48:08.891Z,-5.90
2019-01-20T08:50:38.220Z,-5.80
2019-01-20T08:53:07.469Z,-5.70
2019-01-20T08:55:36.705Z,-5.60
2019-01-20T08:58:05.959Z,-5.50
2019-01-20T09:00:35.203Z,-5.60
2019-01-20T09:03:04.625Z,-5.70
2019-01-20T09:05:33.803Z,-5.50
2019-01-20T09:08:03.071Z,-5.40
2019-01-20T09:10:32.257Z,-5.50
2019-01-20T09:13:03.630Z,-5.70
2019-01-20T09:15:32.877Z,-5.60
2019-01-20T09:18:02.132Z,-5.60
2019-01-20T09:20:31.339Z,-5.70
2019-01-20T09:23:00.579Z,-5.60
2019-01-20T09:25:29.844Z,-5.40
2019-01-20T09:27:59.087Z,-5.30
2019-01-20T09:30:28.266Z,-5.30
2019-01-20T09:32:57.427Z,-5.20
2019-01-20T09:35:27.467Z,-5.20
2019-01-20T09:37:56.784Z,-5.30
2019-01-20T09:40:26.009Z,-5.40
2019-01-20T09:42:55.283Z,-5.20
2019-01-20T09:45:28.217Z,-5.00
2019-01-20T09:47:57.681Z,-4.70
2019-01-20T09:50:26.896Z,-4.60
2019-01-20T09:52:56.141Z,-5.10
2019-01-20T09:55:25.447Z,-5.20
2019-01-20T09:57:54.742Z,-5.30
2019-01-20T10:00:25.827Z,-5.50
2019-01-20T10:02:55.156Z,-5.10
2019-01-20T10:05:24.388Z,-5.10
2019-01-20T10:07:53.731Z,-5.10
2019-01-20T10:10:23.082Z,-5.00
2019-01-20T10:12:52.323Z,-5.00
2019-01-20T10:15:21.625Z,-5.00
2019-01-20T10:17:50.883Z,-4.90
2019-01-20T10:20:28.140Z,-4.80
2019-01-20T10:22:57.550Z,-5.00
2019-01-20T10:25:26.935Z,-5.10
2019-01-20T10:27:56.121Z,-4.90
2019-01-20T10:30:30.511Z,-4.90
2019-01-20T10:32:59.909Z,-5.10
2019-01-20T10:35:36.837Z,-5.20
2019-01-20T10:38:07.693Z,-5.10
2019-01-20T10:40:36.971Z,-5.00
2019-01-20T10:43:06.333Z,-4.70
2019-01-20T10:45:35.584Z,-4.50
2019-01-20T10:48:06.161Z,-4.20
2019-01-20T10:50:35.522Z,-4.10
2019-01-20T10:53:05.431Z,-4.00
2019-01-20T10:55:34.864Z,-4.00
2019-01-20T10:58:04.121Z,-4.00
2019-01-20T11:00:36.429Z,-3.90
2019-01-20T11:03:06.104Z,-4.10
2019-01-20T11:05:35.587Z,-4.30
2019-01-20T11:08:05.054Z,-3.90
2019-01-20T11:10:34.854Z,-3.80
2019-01-20T11:13:04.126Z,-3.50
2019-01-20T11:15:33.377Z,-3.30
2019-01-20T11:18:02.631Z,-3.30
2019-01-20T11:20:31.845Z,-3.20
2019-01-20T11:23:01.019Z,-3.30
2019-01-20T11:25:32.706Z,-3.00
2019-01-20T11:28:01.950Z,-2.40
2019-01-20T11:30:31.189Z,-2.40
2019-01-20T11:33:00.359Z,-2.80
2019-01-20T11:35:30.557Z,-2.60
2019-01-20T11:37:59.823Z,-3.30
2019-01-20T11:40:28.982Z,-3.20
2019-01-20T11:42:58.259Z,-3.20
2019-01-20T11:45:29.187Z,-3.20
2019-01-20T11:47:58.439Z,-2.90
2019-01-20T11:50:27.735Z,-2.70
2019-01-20T11:52:57.034Z,-3.00
2019-01-20T11:55:26.293Z,-3.40
2019-01-20T11:57:55.547Z,-3.30
2019-01-20T12:00:30.326Z,-3.50
2019-01-20T12:02:59.569Z,-3.20
2019-01-20T12:05:28.963Z,-2.80
2019-01-20T12:07:58.259Z,-2.90
2019-01-20T12:10:27.635Z,-2.70
2019-01-20T12:13:28.199Z,-2.70
2019-01-20T12:15:57.488Z,-3.00
2019-01-20T12:18:26.704Z,-3.30
2019-01-20T12:20:55.971Z,-3.00
2019-01-20T12:23:25.155Z,-2.80
2019-01-20T12:25:54.425Z,-2.80
2019-01-20T12:28:23.601Z,-2.60
2019-01-20T12:30:52.911Z,-2.60
2019-01-20T12:33:22.192Z,-2.50
2019-01-20T12:35:51.479Z,-2.40
2019-01-20T12:38:20.688Z,-2.20
2019-01-20T12:40:49.994Z,-1.90
2019-01-20T12:43:20.811Z,-1.50
2019-01-20T12:45:50.064Z,-1.20
2019-01-20T12:48:19.413Z,-1.40
2019-01-20T12:50:48.746Z,-1.60
2019-01-20T12:53:18.106Z,-1.70
2019-01-20T12:55:47.304Z,-2.10
2019-01-20T12:58:16.711Z,-2.10
2019-01-20T13:00:45.903Z,-2.10
2019-01-20T13:03:34.278Z,-2.10
2019-01-20T13:06:03.543Z,-2.40
2019-01-20T13:08:32.821Z,-2.10
2019-01-20T13:11:02.099Z,-2.00
2019-01-20T13:13:31.383Z,-1.90
2019-01-20T13:16:00.705Z,-1.70
2019-01-20T13:18:29.990Z,-1.40
2019-01-20T13:20:59.371Z,-1.60
2019-01-20T13:23:28.710Z,-1.70
2019-01-20T13:25:58.062Z,-1.80
2019-01-20T13:28:27.340Z,-1.80
2019-01-20T13:30:56.526Z,-2.20
2019-01-20T13:33:25.862Z,-2.50
2019-01-20T13:35:55.125Z,-2.40
2019-01-20T13:38:25.540Z,-2.50
2019-01-20T13:41:24.736Z,-2.50
2019-01-20T13:43:54.597Z,-2.60
2019-01-20T13:46:23.858Z,-2.70
2019-01-20T13:48:53.043Z,-2.80
2019-01-20T13:51:22.299Z,-3.10
2019-01-20T13:53:51.654Z,-3.00
2019-01-20T13:56:21.028Z,-2.90
2019-01-20T13:58:50.342Z,-3.00
2019-01-20T14:01:19.527Z,-2.90
2019-01-20T14:03:48.788Z,-2.80
2019-01-20T14:06:18.091Z,-2.70
2019-01-20T14:08:47.423Z,-2.60
2019-01-20T14:11:16.590Z,-2.60
2019-01-20T14:13:45.895Z,-2.60
2019-01-20T14:16:15.174Z,-2.50
2019-01-20T14:18:45.378Z,-2.50
2019-01-20T14:21:14.912Z,-2.50
2019-01-20T14:23:44.330Z,-2.60
2019-01-20T14:26:13.523Z,-2.80
2019-01-20T14:28:42.799Z,-3.10
2019-01-20T14:31:12.088Z,-3.20
2019-01-20T14:33:41.423Z,-3.10
2019-01-20T14:36:10.699Z,-3.00
2019-01-20T14:38:40.263Z,-2.90
2019-01-20T14:41:09.595Z,-2.90
2019-01-20T14:43:38.845Z,-2.80
2019-01-20T14:46:08.044Z,-2.80
2019-01-20T14:48:37.305Z,-2.80
2019-01-20T14:51:06.619Z,-2.90
2019-01-20T14:53:35.869Z,-3.00
2019-01-20T14:56:05.651Z,-3.20
2019-01-20T14:58:34.916Z,-3.20
2019-01-20T15:01:04.239Z,-3.30
2019-01-20T15:03:33.391Z,-3.40
2019-01-20T15:06:02.660Z,-3.40
2019-01-20T15:08:31.939Z,-3.40
2019-01-20T15:11:01.186Z,-3.40
2019-01-20T15:13:30.490Z,-3.40
2019-01-20T15:15:59.781Z,-3.40
2019-01-20T15:18:29.004Z,-3.40
2019-01-20T15:20:58.248Z,-3.30
2019-01-20T15:23:27.659Z,-3.30
2019-01-20T15:25:56.976Z,-3.40
2019-01-20T15:28:26.247Z,-3.50
2019-01-20T15:30:55.447Z,-3.50
2019-01-20T15:33:24.789Z,-3.60
2019-01-20T15:35:54.084Z,-3.50
2019-01-20T15:38:23.262Z,-3.60
2019-01-20T15:40:52.603Z,-3.60
2019-01-20T15:43:21.902Z,-3.50
2019-01-20T15:45:51.245Z,-3.40
2019-01-20T15:48:20.717Z,-3.50
2019-01-20T15:50:50.070Z,-3.60
2019-01-20T15:53:19.375Z,-3.60
2019-01-20T15:55:48.687Z,-3.70
2019-01-20T15:58:17.952Z,-3.70
2019-01-20T16:00:47.244Z,-3.70
2019-01-20T16:03:16.482Z,-3.80
2019-01-20T16:05:45.753Z,-3.80
2019-01-20T16:08:15.114Z,-3.80
2019-01-20T16:10:44.445Z,-3.90
2019-01-20T16:13:13.662Z,-3.80
2019-01-20T16:15:42.888Z,-3.80
2019-01-20T16:18:14.429Z,-3.80
2019-01-20T16:20:43.150Z,-3.80
2019-01-20T16:23:12.521Z,-3.80
2019-01-20T16:25:41.831Z,-3.80
2019-01-20T16:28:11.995Z,-3.80
2019-01-20T16:30:41.791Z,-3.70
2019-01-20T16:33:11.090Z,-3.70
2019-01-20T16:35:40.367Z,-3.70
2019-01-20T16:38:11.223Z,-3.70
2019-01-20T16:40:40.508Z,-3.80
2019-01-20T16:43:09.870Z,-3.80
2019-01-20T16:45:44.024Z,-3.80
2019-01-20T16:48:13.537Z,-3.90
2019-01-20T16:50:42.827Z,-3.90
2019-01-20T16:53:12.031Z,-3.90
2019-01-20T16:55:41.351Z,-3.90
2019-01-20T16:58:10.634Z,-3.90
2019-01-20T17:00:42.329Z,-3.90
2019-01-20T17:03:11.705Z,-3.90
2019-01-20T17:05:41.083Z,-3.90
2019-01-20T17:08:10.979Z,-3.90
2019-01-20T17:10:41.998Z,-3.90
2019-01-20T17:13:12.000Z,-3.80
2019-01-20T17:15:43.565Z,-3.80
2019-01-20T17:18:14.241Z,-3.80
2019-01-20T17:20:43.464Z,-3.80
2019-01-20T17:23:12.935Z,-3.80
2019-01-20T17:25:42.152Z,-3.80
2019-01-20T17:28:11.339Z,-3.80
2019-01-20T17:30:40.810Z,-3.80
2019-01-20T17:33:11.044Z,-3.80
2019-01-20T17:35:40.404Z,-3.70
2019-01-20T17:38:09.710Z,-3.80
2019-01-20T17:40:39.041Z,-3.80
2019-01-20T17:43:08.400Z,-3.70
2019-01-20T17:45:47.493Z,-3.80
2019-01-20T17:48:12.807Z,-3.80
2019-01-20T17:50:43.355Z,-3.80
2019-01-20T17:53:13.282Z,-3.70
2019-01-20T17:55:45.639Z,-3.70
2019-01-20T17:58:15.013Z,-3.80
2019-01-20T18:00:51.247Z,-3.80
2019-01-20T18:03:20.768Z,-3.80
2019-01-20T18:05:50.190Z,-3.80
2019-01-20T18:08:19.594Z,-3.80
2019-01-20T18:10:48.893Z,-3.80
2019-01-20T18:13:18.226Z,-3.80
2019-01-20T18:15:54.064Z,-3.80
2019-01-20T18:18:18.651Z,-3.80
2019-01-20T18:20:48.007Z,-3.70
2019-01-20T18:23:17.307Z,-3.70
2019-01-20T18:25:46.653Z,-3.60
2019-01-20T18:28:16.182Z,-3.60
2019-01-20T18:30:45.552Z,-3.60
2019-01-20T18:33:14.988Z,-3.70
2019-01-20T18:35:44.300Z,-3.70
2019-01-20T18:38:13.679Z,-3.70
2019-01-20T18:40:43.170Z,-3.70
2019-01-20T18:43:12.478Z,-3.10
2019-01-20T18:45:41.844Z,-3.10
2019-01-20T18:48:12.375Z,-3.00
2019-01-20T18:50:42.141Z,-3.30
2019-01-20T18:53:11.403Z,-3.40
2019-01-20T18:55:40.748Z,-3.40
2019-01-20T18:58:10.147Z,-3.60
2019-01-20T19:00:45.523Z,-3.60
2019-01-20T19:03:14.992Z,-3.60
2019-01-20T19:05:44.308Z,-3.70
2019-01-20T19:08:13.801Z,-3.70
2019-01-20T19:10:43.255Z,-3.60
2019-01-20T19:13:12.584Z,-3.70
2019-01-20T19:15:42.112Z,-3.60
2019-01-20T19:18:18.660Z,-3.80
2019-01-20T19:20:42.681Z,-3.80
2019-01-20T19:23:12.074Z,-3.80
2019-01-20T19:25:41.448Z,-3.60
2019-01-20T19:28:10.733Z,-3.40
2019-01-20T19:30:40.076Z,-3.50
2019-01-20T19:33:09.372Z,-3.60
2019-01-20T19:35:38.669Z,-3.60
2019-01-20T19:38:08.294Z,-3.60
2019-01-20T19:40:37.718Z,-3.70
2019-01-20T19:43:06.989Z,-3.70
2019-01-20T19:45:36.333Z,-3.80
2019-01-20T19:48:05.704Z,-3.70
2019-01-20T19:50:34.897Z,-3.60
2019-01-20T19:53:04.466Z,-3.60
2019-01-20T19:55:34.687Z,-3.40
2019-01-20T19:58:04.400Z,-3.30
2019-01-20T20:00:33.915Z,-3.30
2019-01-20T20:03:03.832Z,-3.40
2019-01-20T20:05:33.446Z,-3.60
2019-01-20T20:08:03.050Z,-3.70
2019-01-20T20:10:32.445Z,-3.70
2019-01-20T20:13:03.392Z,-3.70
2019-01-20T20:15:32.806Z,-3.60
2019-01-20T20:18:02.200Z,-3.70
2019-01-20T20:20:31.526Z,-3.60
2019-01-20T20:23:01.461Z,-3.60
2019-01-20T20:25:30.829Z,-3.60
2019-01-20T20:28:00.102Z,-3.60
2019-01-20T20:30:34.874Z,-3.60
2019-01-20T20:33:04.440Z,-3.70
2019-01-20T20:35:33.809Z,-3.60
2019-01-20T20:38:03.197Z,-3.70
2019-01-20T20:40:32.487Z,-3.60
2019-01-20T20:43:01.976Z,-3.60
2019-01-20T20:45:32.493Z,-3.60
2019-01-20T20:48:01.871Z,-3.50
2019-01-20T20:50:31.216Z,-3.50
2019-01-20T20:53:00.963Z,-3.50
2019-01-20T20:55:30.303Z,-3.40
2019-01-20T20:57:59.631Z,-3.30
2019-01-20T21:00:37.275Z,-3.40
2019-01-20T21:03:16.506Z,-3.50
2019-01-20T21:05:45.836Z,-3.50
2019-01-20T21:08:15.232Z,-3.50
2019-01-20T21:10:44.492Z,-3.50
2019-01-20T21:13:13.793Z,-3.40
2019-01-20T21:15:43.177Z,-3.40
2019-01-20T21:18:12.416Z,-3.50
2019-01-20T21:20:41.833Z,-3.50
2019-01-20T21:23:12.587Z,-3.50
2019-01-20T21:25:41.920Z,-3.50
2019-01-20T21:28:11.155Z,-3.50
2019-01-20T21:30:40.455Z,-3.50
2019-01-20T21:33:09.803Z,-3.50
2019-01-20T21:35:39.098Z,-3.60
2019-01-20T21:38:08.377Z,-3.50
2019-01-20T21:40:37.675Z,-3.50
2019-01-20T21:43:07.097Z,-3.40
2019-01-20T21:45:36.440Z,-3.50
2019-01-20T21:48:05.831Z,-3.40
2019-01-20T21:50:36.076Z,-3.50
2019-01-20T21:53:05.584Z,-3.50
2019-01-20T21:55:34.920Z,-3.50
2019-01-20T21:58:04.222Z,-3.50
2019-01-20T22:00:33.621Z,-3.50
2019-01-20T22:03:02.912Z,-3.50
2019-01-20T22:05:32.315Z,-3.50
2019-01-20T22:08:01.606Z,-3.50
2019-01-20T22:10:31.005Z,-3.50
2019-01-20T22:13:00.313Z,-3.50
2019-01-20T22:15:29.695Z,-3.60
2019-01-20T22:17:58.965Z,-3.60
2019-01-20T22:20:28.296Z,-3.60
2019-01-20T22:22:57.569Z,-3.60
2019-01-20T22:25:26.974Z,-3.60
2019-01-20T22:27:56.372Z,-3.60
2019-01-20T22:30:27.584Z,-3.60
2019-01-20T22:32:56.994Z,-3.60
2019-01-20T22:35:26.708Z,-3.60
2019-01-20T22:37:55.984Z,-3.60
2019-01-20T22:40:25.339Z,-3.60
2019-01-20T22:42:54.660Z,-3.60
2019-01-20T22:45:26.448Z,-3.60
2019-01-20T22:47:55.711Z,-3.60
2019-01-20T22:50:25.804Z,-3.60
2019-01-20T22:52:56.410Z,-3.70
2019-01-20T22:55:25.852Z,-3.70
2019-01-20T22:57:55.192Z,-3.70
2019-01-20T23:00:50.034Z,-3.60
2019-01-20T23:03:19.442Z,-3.70
2019-01-20T23:05:51.022Z,-3.70
2019-01-20T23:08:20.410Z,-3.70
2019-01-20T23:10:49.633Z,-3.70
2019-01-20T23:13:18.935Z,-3.70
2019-01-20T23:15:48.675Z,-3.80
2019-01-20T23:18:17.995Z,-3.70
2019-01-20T23:20:47.511Z,-3.70
2019-01-20T23:23:16.894Z,-3.80
2019-01-20T23:25:46.134Z,-3.70
2019-01-20T23:28:15.384Z,-3.80
2019-01-20T23:30:44.555Z,-3.80
2019-01-20T23:33:13.762Z,-3.80
2019-01-20T23:35:42.997Z,-3.90
2019-01-20T23:38:12.314Z,-3.90
2019-01-20T23:40:41.575Z,-3.90
2019-01-20T23:43:10.723Z,-3.90
2019-01-20T23:45:39.890Z,-3.90
2019-01-20T23:48:10.208Z,-3.80
2019-01-20T23:50:39.664Z,-3.90
2019-01-20T23:53:08.936Z,-4.00
2019-01-20T23:55:38.097Z,-4.00
2019-01-20T23:58:07.275Z,-4.00
